Nearby METAR Reports

   
KFPR - Fort Pierce, FL
Updated: Oct 22 2017 4:53 am
Mostly Cloudy  
Mostly Cloudy  
   Wind: ESE 11.5 mph
Wind: ESE 11.5 mph
Temperature: 78.8°F
Dew Point: 75.2°F
Humidity: 89%
Barometer: 30.1 inHg
Clouds: Mostly Cloudy
Visibility: 10 mi
Cloud details: Mostly Cloudy 3048 m
KFPR 220853Z AUTO 11010KT 10SM BKN100 26/24 A3007 RMK AO2 SLP182 60000 T02610244 55009
KSUA - Stuart, FL
Updated: Oct 22 2017 5:35 am
Clear  
Clear  
   Wind: East 9.2 mph
Wind: East 9.2 mph
Temperature: 80.6°F
Heat Index: 87.8°F
Dew Point: 77°F
Humidity: 89%
Barometer: 30.1 inHg
Clouds: Clear
Visibility: 7 mi
Cloud details: Clear
KSUA 220935Z AUTO 10008KT 7SM CLR 27/25 A3008 RMK AO2
KOBE - Okeechobee, FL
Updated: Oct 22 2017 5:35 am
Clear  
Clear  
   Wind: East 4.6 mph
Wind: East 4.6 mph
Temperature: 73.4°F
Dew Point: 71.6°F
Humidity: 94%
Barometer: 30.1 inHg
Clouds: Clear
Visibility: 10 mi
Cloud details: Clear
KOBE 220935Z AUTO 09004KT 10SM CLR 23/22 A3006 RMK AO2

Script developed by  Saratoga-weather.org Adapted for the template by  Weerstation Leuven

You find our weather info also at:

WeatherCloud

Weather Underground

Southeastern Weather Network

Citizen Weather Observer Program (CWOP)

HAMweather, WeatherForYou, PWS Weather

Anything Weather